Latest Weather Observations for Cape Byron

IDN60801

Issued at 12:42 pm EST Tuesday 23 April 2019 (issued every 10 minutes, with the page automatically refreshed every 10 minutes)

About weather observations | Map of weather stations | Latest weather observations for NSW | Other Formats
Station Details ID: 058216 Name: CAPE BYRON AWS Lat: -28.64 Lon: 153.64 Height: 95.0 m
Data from the previous 72 hours. | See also: Recent months at Cape Byron
Date/Time
EST
Temp
°C
App
Temp
°C
Dew
Point
°C
Rel
Hum
%
Delta-T
°C
Wind Press
QNH
hPa
Press
MSL
hPa
Rain since
9am
mm
Dir  Spd
km/h
Gust
km/h
Spd
kts
Gust
kts
23/12:30pm 25.2 23.1 17.1 60 5.0 E 24 33 13 18 1023.9 1023.6 0.0
23/12:00pm 25.5 22.8 16.6 58 5.5 E 26 33 14 18 1024.3 1024.0 0.0
23/11:30am 25.0 22.3 16.7 60 5.1 E 26 32 14 17 1024.7 1024.4 0.0
23/11:00am 24.9 22.2 16.6 60 5.1 E 26 33 14 18 1024.9 1024.6 0.0
23/10:30am 25.6 23.2 17.3 60 5.2 E 26 33 14 18 1025.4 1025.1 0.0
23/10:00am 25.0 22.9 17.2 62 4.8 E 24 33 13 18 1025.6 1025.3 0.0
23/09:30am 24.0 20.4 16.3 62 4.7 E 30 37 16 20 1025.6 1025.3 0.0
23/09:00am 23.7 20.8 16.0 62 4.7 E 26 32 14 17 1025.6 1025.3 0.8
23/08:30am 23.8 21.0 16.3 63 4.6 E 26 37 14 20 1025.5 1025.2 0.8
23/08:00am 23.3 20.2 16.6 66 4.1 E 28 35 15 19 1025.3 1025.0 0.8
23/07:30am 22.2 18.4 15.8 67 3.9 E 30 43 16 23 1025.1 1024.8 0.8
23/07:00am 22.1 18.9 16.4 70 3.5 E 28 41 15 22 1024.9 1024.6 0.8
23/06:30am 21.8 18.2 16.3 71 3.3 E 30 39 16 21 1024.6 1024.3 0.8
23/06:00am 21.6 17.6 16.1 71 3.3 E 32 43 17 23 1024.1 1023.8 0.8
23/05:30am 21.6 16.7 15.4 68 3.7 E 35 43 19 23 1023.6 1023.3 0.8
23/05:00am 21.7 17.8 16.4 72 3.2 E 32 43 17 23 1023.4 1023.1 0.8
23/04:30am 21.6 18.0 16.3 72 3.2 E 30 39 16 21 1023.2 1022.9 0.8
23/04:00am 21.7 18.2 16.4 72 3.2 E 30 41 16 22 1023.0 1022.7 0.8
23/03:30am 21.9 17.8 16.0 69 3.6 E 32 43 17 23 1022.7 1022.4 0.8
23/03:00am 21.9 20.3 16.6 72 3.2 ENE 20 30 11 16 1023.0 1022.7 0.8
23/02:30am 21.7 21.4 17.3 76 2.7 E 15 26 8 14 1023.1 1022.8 0.8
23/02:00am 21.6 21.2 17.2 76 2.7 ENE 15 24 8 13 1023.4 1023.1 0.8
23/01:30am 21.8 19.5 16.7 73 3.1 E 24 32 13 17 1023.7 1023.4 0.8
23/01:00am 21.8 20.2 16.5 72 3.2 E 20 32 11 17 1023.8 1023.5 0.8
23/12:30am 21.9 19.4 16.2 70 3.5 E 24 33 13 18 1024.0 1023.7 0.8
23/12:00am 22.2 21.0 16.2 69 3.6 ENE 17 26 9 14 1024.1 1023.8 0.8
 
Date/Time
EST
Temp
°C
App
Temp
°C
Dew
Point
°C
Rel
Hum
%
Delta-T
°C
Wind Press
QNH
hPa
Press
MSL
hPa
Rain since
9am
mm
Dir  Spd
km/h
Gust
km/h
Spd
kts
Gust
kts
22/11:30pm 22.2 20.8 16.5 70 3.5 ENE 19 28 10 15 1023.8 1023.5 0.8
22/11:00pm 22.0 20.6 16.9 73 3.1 E 20 28 11 15 1023.9 1023.6 0.8
22/10:30pm 22.1 20.7 16.6 71 3.4 E 19 30 10 16 1024.1 1023.8 0.8
22/10:00pm 22.3 21.0 16.8 71 3.4 ENE 19 28 10 15 1024.1 1023.8 0.8
22/09:30pm 22.0 20.5 16.3 70 3.5 ENE 19 30 10 16 1024.0 1023.7 0.8
22/09:00pm 22.0 20.1 16.7 72 3.2 E 22 32 12 17 1023.9 1023.6 0.8
22/08:30pm 22.0 19.3 16.7 72 3.2 E 26 37 14 20 1023.6 1023.3 0.8
22/08:00pm 22.1 20.3 17.0 73 3.1 E 22 39 12 21 1023.5 1023.2 0.8
22/07:30pm 22.1 19.9 17.0 73 3.1 ENE 24 39 13 21 1023.3 1023.0 0.8
22/07:00pm 22.1 19.6 17.2 74 3.0 E 26 41 14 22 1022.9 1022.6 0.8
22/06:30pm 22.1 20.2 17.7 76 2.7 ENE 24 35 13 19 1022.7 1022.4 0.8
22/06:00pm 21.8 20.1 18.2 80 2.2 ENE 24 37 13 20 1022.2 1021.9 0.8
22/05:30pm 20.8 19.2 18.4 86 1.5 E 24 32 13 17 1022.0 1021.7 0.8
22/05:00pm 21.6 19.6 18.4 82 2.0 E 26 37 14 20 1021.7 1021.4 0.2
22/04:30pm 21.2 20.8 18.0 82 2.0 E 17 24 9 13 1021.9 1021.6 0.2
22/04:00pm 21.9 20.4 18.5 81 2.1 ENE 24 35 13 19 1021.7 1021.4 0.0
22/03:30pm 22.9 21.5 18.9 78 2.5 E 24 33 13 18 1021.5 1021.2 0.0
22/03:00pm 23.7 21.8 17.7 69 3.7 E 24 33 13 18 1021.5 1021.2 0.0
22/02:30pm 24.2 21.9 17.7 67 4.1 E 26 33 14 18 1021.6 1021.3 0.0
22/02:00pm 25.0 22.9 18.0 65 4.4 E 26 32 14 17 1021.6 1021.3 0.0
22/01:30pm 24.4 22.2 17.9 67 4.1 E 26 33 14 18 1021.4 1021.1 0.0
22/01:00pm 24.9 22.6 17.6 64 4.6 E 26 33 14 18 1021.7 1021.4 0.0
22/12:30pm 25.2 22.3 17.1 60 5.0 E 28 33 15 18 1021.9 1021.6 0.0
22/12:00pm 25.0 22.7 17.7 64 4.6 E 26 33 14 18 1022.2 1021.9 0.0
22/11:30am 25.2 23.5 18.9 68 4.0 E 26 33 14 18 1022.5 1022.2 0.0
22/11:00am 23.2 23.4 18.5 75 3.0 SSE 15 22 8 12 1022.8 1022.5 0.0
22/10:30am 23.3 23.3 18.2 73 3.2 S 15 20 8 11 1023.0 1022.7 0.0
22/10:00am 22.0 22.1 17.4 75 2.8 SSW 13 17 7 9 1023.2 1022.9 0.0
22/09:30am 22.9 23.7 18.2 75 3.0 SSW 11 15 6 8 1023.4 1023.1 0.0
22/09:00am 20.5 20.6 16.5 78 2.4 SW 11 15 6 8 1023.2 1022.9 0.2
22/08:30am 20.3 20.2 15.9 76 2.6 SW 11 15 6 8 1023.3 1023.0 0.2
22/08:00am 19.7 19.4 15.4 76 2.5 SSW 11 15 6 8 1022.9 1022.6 0.2
22/07:30am 19.2 18.8 15.3 78 2.3 SSW 11 15 6 8 1022.7 1022.4 0.2
22/07:00am 18.8 18.0 15.1 79 2.2 SSW 13 15 7 8 1022.6 1022.3 0.2
22/06:30am 18.3 17.5 15.0 81 1.9 SSW 13 15 7 8 1022.2 1021.9 0.2
22/06:00am 18.5 17.0 15.2 81 1.9 SW 17 20 9 11 1022.0 1021.7 0.2
22/05:30am 18.9 18.1 15.2 79 2.2 SSW 13 17 7 9 1021.7 1021.4 0.2
22/05:00am 19.7 19.3 15.1 75 2.7 SSW 11 17 6 9 1021.7 1021.4 0.2
22/04:30am 21.3 19.6 15.8 71 3.3 ESE 19 24 10 13 1021.4 1021.1 0.2
22/04:00am 21.0 18.9 15.1 69 3.5 E 20 28 11 15 1021.3 1021.0 0.2
22/03:30am 21.2 18.8 15.5 70 3.4 E 22 30 12 16 1021.2 1020.9 0.2
22/03:00am 21.4 19.8 16.4 73 3.0 E 20 32 11 17 1021.2 1020.9 0.2
22/02:30am 21.5 19.2 16.7 74 2.9 E 24 35 13 19 1021.2 1020.9 0.2
22/02:00am 21.5 18.8 16.7 74 2.9 E 26 33 14 18 1021.5 1021.2 0.2
22/01:30am 21.4 19.9 16.8 75 2.8 E 20 28 11 15 1022.0 1021.7 0.2
22/01:00am 21.6 19.4 16.8 74 2.9 E 24 30 13 16 1022.2 1021.9 0.2
22/12:30am 21.5 19.2 16.7 74 2.9 E 24 32 13 17 1022.6 1022.3 0.2
22/12:00am 21.8 20.7 17.4 76 2.7 ENE 19 28 10 15 1022.8 1022.5 0.2
 
Date/Time
EST
Temp
°C
App
Temp
°C
Dew
Point
°C
Rel
Hum
%
Delta-T
°C
Wind Press
QNH
hPa
Press
MSL
hPa
Rain since
9am
mm
Dir  Spd
km/h
Gust
km/h
Spd
kts
Gust
kts
21/11:30pm 21.8 20.1 17.2 75 2.8 E 22 33 12 18 1022.7 1022.4 0.2
21/11:00pm 21.9 21.2 17.3 75 2.8 ENE 17 26 9 14 1022.9 1022.6 0.2
21/10:30pm 22.0 19.9 17.2 74 3.0 E 24 32 13 17 1023.2 1022.9 0.2
21/10:00pm 21.8 20.1 16.3 71 3.3 ESE 20 26 11 14 1023.5 1023.2 0.2
21/09:30pm 21.9 19.9 16.4 71 3.3 ESE 22 30 12 16 1023.5 1023.2 0.2
21/09:00pm 22.0 19.3 16.7 72 3.2 ESE 26 32 14 17 1023.4 1023.1 0.2
21/08:30pm 21.9 19.1 16.4 71 3.3 E 26 33 14 18 1023.2 1022.9 0.2
21/08:00pm 22.1 19.3 16.4 70 3.5 ESE 26 32 14 17 1023.2 1022.9 0.2
21/07:30pm 22.0 19.7 16.7 72 3.2 E 24 32 13 17 1022.9 1022.6 0.2
21/07:00pm 21.9 18.6 16.0 69 3.6 E 28 39 15 21 1022.6 1022.3 0.2
21/06:30pm 21.9 19.2 16.6 72 3.2 E 26 37 14 20 1022.7 1022.4 0.2
21/06:00pm 22.0 18.4 16.3 70 3.5 E 30 35 16 19 1022.1 1021.8 0.2
21/05:30pm 22.2 18.0 16.2 69 3.6 E 33 39 18 21 1022.1 1021.8 0.2
21/05:00pm 22.5 18.9 17.2 72 3.3 E 32 41 17 22 1021.9 1021.6 0.2
21/04:30pm 22.7 19.0 16.9 70 3.6 E 32 41 17 22 1021.6 1021.3 0.2
21/04:00pm 23.6 19.3 16.9 66 4.1 E 35 43 19 23 1021.5 1021.2 0.2
21/03:30pm 23.5 18.9 17.0 67 4.0 E 37 46 20 25 1021.5 1021.2 0.2
21/03:00pm 24.1 20.0 17.4 66 4.2 E 35 43 19 23 1021.6 1021.3 0.2
21/02:30pm 23.7 19.1 17.2 67 4.0 E 37 44 20 24 1021.6 1021.3 0.2
21/02:00pm 25.0 20.8 18.0 65 4.4 E 37 43 20 23 1021.7 1021.4 0.2
21/01:30pm 24.0 20.0 17.5 67 4.1 E 35 43 19 23 1021.6 1021.3 0.2
21/01:00pm 24.6 20.6 17.6 65 4.4 E 35 41 19 22 1022.0 1021.7 0.2
21/12:30pm 24.5 20.8 17.5 65 4.4 ESE 33 41 18 22 1022.1 1021.8 0.2
21/12:00pm 24.3 20.5 17.3 65 4.3 E 33 41 18 22 1022.6 1022.3 0.0
21/11:30am 25.0 21.4 17.7 64 4.6 E 33 43 18 23 1023.1 1022.8 0.0
21/11:00am 24.5 22.6 17.7 66 4.3 E 24 39 13 21 1023.2 1022.9 0.0
21/10:30am 24.8 22.4 18.3 67 4.1 E 28 37 15 20 1023.3 1023.0 0.0
21/10:00am 24.3 21.2 17.5 66 4.2 E 30 41 16 22 1023.6 1023.3 0.0
21/09:30am 24.3 22.8 18.5 70 3.7 E 24 35 13 19 1023.8 1023.5 0.0
21/09:00am 23.3 22.2 17.7 71 3.5 E 20 32 11 17 1023.8 1023.5 0.6
21/08:30am 22.0 21.1 18.2 79 2.4 E 20 32 11 17 1023.8 1023.5 0.6
21/08:00am 22.5 22.0 19.1 81 2.2 ESE 20 30 11 16 1023.7 1023.4 0.4
21/07:30am 22.4 20.4 18.4 78 2.5 E 26 35 14 19 1023.3 1023.0 0.4
21/07:00am 21.8 20.9 19.0 84 1.8 E 22 35 12 19 1023.1 1022.8 0.4
21/06:30am 22.0 19.6 17.4 75 2.8 E 26 39 14 21 1022.8 1022.5 0.2
21/06:00am 21.7 18.8 17.1 75 2.8 E 28 33 15 18 1022.5 1022.2 0.2
21/05:30am 21.7 18.7 16.9 74 2.9 E 28 35 15 19 1022.4 1022.1 0.2
21/05:00am 21.9 20.2 16.2 70 3.4 E 20 37 11 20 1022.1 1021.8 0.2
21/04:30am 21.7 18.9 16.4 72 3.2 E 26 39 14 21 1021.9 1021.6 0.2
21/04:00am 21.7 18.5 16.4 72 3.2 E 28 39 15 21 1022.0 1021.7 0.2
21/03:30am 21.7 18.1 16.2 71 3.3 E 30 43 16 23 1021.9 1021.6 0.2
21/03:00am 21.7 17.9 16.6 73 3.1 E 32 41 17 22 1021.8 1021.5 0.2
21/02:30am 22.1 20.0 17.2 74 3.0 E 24 33 13 18 1022.0 1021.7 0.2
21/02:00am 22.0 19.2 17.2 74 2.9 E 28 41 15 22 1022.4 1022.1 0.2
21/01:30am 22.4 19.5 18.0 76 2.8 E 30 43 16 23 1022.7 1022.4 0.2
21/01:00am 22.1 18.1 17.7 76 2.7 E 35 46 19 25 1022.6 1022.3 0.2
21/12:30am 22.2 19.0 18.6 80 2.3 E 33 43 18 23 1022.7 1022.4 0.2
21/12:00am 22.1 18.6 17.9 77 2.6 E 33 43 18 23 1022.8 1022.5 0.2
 
Date/Time
EST
Temp
°C
App
Temp
°C
Dew
Point
°C
Rel
Hum
%
Delta-T
°C
Wind Press
QNH
hPa
Press
MSL
hPa
Rain since
9am
mm
Dir  Spd
km/h
Gust
km/h
Spd
kts
Gust
kts
20/11:30pm 22.2 18.2 17.6 75 2.9 E 35 44 19 24 1022.9 1022.6 0.2
20/11:00pm 22.3 18.3 18.5 79 2.4 E 37 44 20 24 1023.3 1023.0 0.2
20/10:30pm 22.1 18.5 18.5 80 2.3 E 35 46 19 25 1023.4 1023.1 0.2
20/10:00pm 22.3 18.7 18.5 79 2.4 E 35 46 19 25 1023.5 1023.2 0.2
20/09:30pm 22.5 17.4 18.5 78 2.5 E 43 52 23 28 1023.4 1023.1 0.2
20/09:00pm 22.6 17.5 19.0 80 2.3 E 44 54 24 29 1023.5 1023.2 0.2
20/08:30pm 22.6 17.9 19.4 82 2.0 E 43 50 23 27 1023.4 1023.1 0.2
20/08:00pm 22.1 17.4 18.7 81 2.1 E 41 54 22 29 1023.1 1022.8 0.2
20/07:49pm 21.6 17.5 19.2 86 1.5 ESE 39 46 21 25 1023.1 1022.8 0.2
20/07:39pm 21.0 15.5 18.0 83 1.9 ESE 44 54 24 29 1023.3 1023.0 0.2
20/07:30pm 21.4 15.6 18.4 83 1.9 E 46 56 25 30 1022.9 1022.6 0.2
20/07:00pm 22.6 19.1 19.6 83 1.9 E 37 48 20 26 1022.8 1022.5 0.0
20/06:30pm 22.7 18.9 19.7 83 1.9 E 39 48 21 26 1022.5 1022.2 0.0
20/06:00pm 22.7 19.3 19.1 80 2.3 E 35 43 19 23 1022.5 1022.2 0.0
20/05:30pm 22.7 18.6 19.1 80 2.3 E 39 48 21 26 1022.3 1022.0 0.0
20/05:00pm 22.8 18.6 19.0 79 2.4 E 39 46 21 25 1022.0 1021.7 0.0
20/04:30pm 23.0 18.9 18.3 75 3.0 E 37 44 20 24 1021.9 1021.6 0.0
20/04:00pm 24.1 20.9 19.4 75 3.0 E 35 44 19 24 1021.8 1021.5 0.0
20/03:30pm 23.6 21.1 20.1 81 2.3 E 33 43 18 23 1021.8 1021.5 0.0
20/03:00pm 22.8 20.7 19.8 83 1.9 E 30 41 16 22 1021.9 1021.6 0.0
20/02:30pm 24.6 21.2 19.9 75 3.0 E 37 46 20 25 1021.9 1021.6 0.0
20/02:00pm 24.9 21.8 19.7 73 3.4 E 35 41 19 22 1022.0 1021.7 0.0
20/01:30pm 24.4 21.3 19.7 75 3.0 ESE 35 43 19 23 1022.2 1021.9 0.0
20/01:00pm 24.8 21.3 19.6 73 3.3 E 37 46 20 25 1022.3 1022.0 0.0

Other formats

Comma delimited format used in spreadsheet applications
http://www.bom.gov.au/fwo/IDN60801/IDN60801.94599.axf

JavaScript Object Notation format (JSON) in row-major order
http://www.bom.gov.au/fwo/IDN60801/IDN60801.94599.json

Data quality

Most of these data are generated automatically and are frequently updated. Quality checks on data are not normally performed. It is possible for incorrect values to appear. Refer to information at About Latest Weather Observations and please check the disclaimer before using these data.